createdAt,value
2022-11-21T00:02:06.121Z,6.06
2022-11-21T00:07:08.323Z,6.12
2022-11-21T00:12:10.096Z,6.10
2022-11-21T00:17:12.120Z,6.13
2022-11-21T00:22:13.882Z,6.12
2022-11-21T00:27:15.518Z,6.11
2022-11-21T00:32:17.288Z,6.12
2022-11-21T00:37:19.020Z,6.14
2022-11-21T00:42:20.796Z,6.16
2022-11-21T00:47:22.548Z,6.19
2022-11-21T00:52:24.343Z,6.19
2022-11-21T00:57:26.012Z,6.23
2022-11-21T01:02:27.802Z,6.20
2022-11-21T01:07:29.779Z,6.24
2022-11-21T01:12:31.824Z,6.29
2022-11-21T01:17:33.742Z,6.30
2022-11-21T01:22:35.545Z,6.31
2022-11-21T01:27:37.276Z,6.26
2022-11-21T01:32:39.220Z,6.30
2022-11-21T01:37:41.028Z,6.24
2022-11-21T01:43:00.134Z,6.17
2022-11-21T01:48:01.928Z,6.05
2022-11-21T01:53:03.697Z,6.04
2022-11-21T01:58:06.018Z,6.06
2022-11-21T02:03:11.966Z,5.98
2022-11-21T02:08:17.751Z,5.97
2022-11-21T02:13:22.649Z,5.92
2022-11-21T02:18:24.519Z,5.92
2022-11-21T02:23:40.096Z,5.96
2022-11-21T02:28:42.743Z,5.94
2022-11-21T02:33:44.434Z,5.95
2022-11-21T02:38:46.303Z,5.96
2022-11-21T02:43:53.403Z,5.99
2022-11-21T02:48:57.338Z,6.06
2022-11-21T02:53:59.099Z,6.13
2022-11-21T02:59:00.923Z,6.17
2022-11-21T03:04:02.549Z,6.18
2022-11-21T03:09:04.267Z,6.18
2022-11-21T03:14:05.949Z,6.22
2022-11-21T03:19:08.224Z,6.18
2022-11-21T03:24:10.109Z,6.18
2022-11-21T03:29:11.892Z,6.17
2022-11-21T03:34:13.624Z,6.15
2022-11-21T03:39:15.370Z,6.17
2022-11-21T03:44:17.282Z,6.12
2022-11-21T03:49:19.023Z,6.05
2022-11-21T03:54:20.764Z,6.09
2022-11-21T03:59:22.444Z,6.10
2022-11-21T04:04:24.375Z,6.07
2022-11-21T04:09:26.044Z,6.13
2022-11-21T04:14:28.393Z,6.11
2022-11-21T04:19:30.289Z,6.11
2022-11-21T04:24:31.994Z,6.08
2022-11-21T04:29:33.701Z,6.09
2022-11-21T04:34:35.413Z,5.96
2022-11-21T04:39:37.208Z,5.86
2022-11-21T04:44:38.990Z,5.77
2022-11-21T04:49:40.690Z,5.79
2022-11-21T04:54:42.478Z,5.74
2022-11-21T04:59:44.473Z,5.62
2022-11-21T05:04:46.272Z,5.52
2022-11-21T05:09:48.020Z,5.48
2022-11-21T05:14:49.856Z,5.42
2022-11-21T05:19:51.610Z,5.38
2022-11-21T05:24:53.388Z,5.38
2022-11-21T05:29:55.382Z,5.35
2022-11-21T05:34:57.012Z,5.39
2022-11-21T05:39:58.989Z,5.36
2022-11-21T05:45:00.836Z,5.40
2022-11-21T05:50:02.491Z,5.51
2022-11-21T05:55:04.431Z,5.57
2022-11-21T06:00:06.993Z,5.59
2022-11-21T06:05:09.070Z,5.67
2022-11-21T06:10:10.752Z,5.68
2022-11-21T06:15:12.436Z,5.66
2022-11-21T06:20:15.029Z,5.56
2022-11-21T06:25:16.777Z,5.54
2022-11-21T06:30:22.161Z,5.52
2022-11-21T06:35:24.177Z,5.48
2022-11-21T06:40:25.964Z,5.51
2022-11-21T06:45:27.909Z,5.65
2022-11-21T06:50:31.211Z,5.74
2022-11-21T06:55:32.983Z,5.69
2022-11-21T07:00:34.752Z,5.71
2022-11-21T07:05:36.529Z,5.80
2022-11-21T07:10:38.227Z,5.89
2022-11-21T07:15:39.898Z,5.93
2022-11-21T07:20:41.745Z,5.90
2022-11-21T07:25:44.166Z,5.87
2022-11-21T07:30:46.116Z,5.93
2022-11-21T07:35:47.861Z,5.93
2022-11-21T07:40:49.581Z,5.97
2022-11-21T07:45:51.392Z,6.05
2022-11-21T07:50:53.325Z,6.14
2022-11-21T07:55:58.638Z,6.16
2022-11-21T08:01:03.967Z,6.22
2022-11-21T08:06:05.881Z,6.26
2022-11-21T08:11:08.122Z,6.29
2022-11-21T08:16:09.877Z,6.33
2022-11-21T08:21:15.720Z,6.37
2022-11-21T08:26:20.227Z,6.46
2022-11-21T08:31:21.876Z,6.48
2022-11-21T08:36:23.968Z,6.49
2022-11-21T08:41:44.392Z,6.52
2022-11-21T08:46:46.084Z,6.45
2022-11-21T08:51:49.387Z,6.51
2022-11-21T08:56:51.565Z,6.64
2022-11-21T09:01:53.447Z,6.62
2022-11-21T09:06:55.289Z,6.71
2022-11-21T09:11:56.999Z,6.68
2022-11-21T09:17:17.616Z,6.61
2022-11-21T09:22:19.318Z,6.61
2022-11-21T09:27:21.140Z,6.71
2022-11-21T09:32:23.811Z,6.83
2022-11-21T09:37:25.534Z,6.88
2022-11-21T09:43:08.127Z,7.01
2022-11-21T09:48:14.145Z,7.11
2022-11-21T09:53:33.724Z,7.21
2022-11-21T09:58:41.461Z,7.25
2022-11-21T10:03:50.803Z,7.38
2022-11-21T10:08:55.879Z,7.51
2022-11-21T10:14:17.510Z,7.47
2022-11-21T10:20:07.320Z,7.33
2022-11-21T10:25:26.886Z,7.40
2022-11-21T10:30:29.820Z,7.40
2022-11-21T10:35:55.340Z,7.43
2022-11-21T10:41:06.735Z,7.54
2022-11-21T10:46:09.425Z,7.64
2022-11-21T10:51:22.893Z,7.65
2022-11-21T10:56:27.525Z,7.61
2022-11-21T11:01:32.990Z,7.52
2022-11-21T11:06:35.491Z,7.51
2022-11-21T11:11:37.247Z,7.51
2022-11-21T11:16:44.903Z,7.60
2022-11-21T11:21:47.615Z,7.98
2022-11-21T11:26:49.597Z,8.24
2022-11-21T11:32:05.045Z,8.42
2022-11-21T11:37:13.773Z,8.23
2022-11-21T11:42:40.299Z,7.98
2022-11-21T11:47:54.913Z,7.92
2022-11-21T11:53:05.778Z,7.92
2022-11-21T11:58:36.638Z,7.93
2022-11-21T12:04:07.435Z,8.35
2022-11-21T12:09:40.477Z,8.48
2022-11-21T12:15:34.182Z,8.23
2022-11-21T12:20:47.160Z,8.14
2022-11-21T12:26:30.111Z,8.11
2022-11-21T12:32:05.750Z,8.24
2022-11-21T12:37:13.558Z,8.57
2022-11-21T12:42:40.227Z,8.73
2022-11-21T12:48:11.995Z,8.92
2022-11-21T12:54:22.962Z,8.94
2022-11-21T12:59:25.610Z,8.95
2022-11-21T13:04:36.093Z,8.93
2022-11-21T13:09:40.832Z,8.85
2022-11-21T13:15:13.379Z,8.76
2022-11-21T13:20:36.973Z,8.71
2022-11-21T13:25:40.008Z,8.71
2022-11-21T13:30:49.876Z,8.64
2022-11-21T13:35:51.545Z,8.67
2022-11-21T13:41:11.649Z,8.71
2022-11-21T13:46:51.972Z,8.72
2022-11-21T13:51:54.776Z,8.81
2022-11-21T13:57:21.089Z,8.76
2022-11-21T14:02:43.630Z,8.80
2022-11-21T14:07:45.928Z,8.84
2022-11-21T14:12:50.271Z,8.81
2022-11-21T14:17:56.896Z,8.82
2022-11-21T14:23:14.327Z,8.83
2022-11-21T14:28:31.390Z,8.52
2022-11-21T14:33:41.349Z,8.38
2022-11-21T14:39:21.038Z,8.34
2022-11-21T14:44:18.642Z,7.91
2022-11-21T14:49:23.666Z,7.56
2022-11-21T14:54:29.703Z,7.56
2022-11-21T14:59:38.903Z,7.37
2022-11-21T15:04:42.262Z,7.01
2022-11-21T15:15:30.993Z,6.44
2022-11-21T15:20:33.204Z,6.29
2022-11-21T15:25:47.260Z,6.15
2022-11-21T15:31:19.292Z,5.88
2022-11-21T15:36:21.675Z,5.77
2022-11-21T15:41:26.240Z,5.57
2022-11-21T15:46:32.924Z,5.38
2022-11-21T15:52:05.693Z,5.34
2022-11-21T15:57:00.360Z,5.35
2022-11-21T16:02:04.926Z,5.12
2022-11-21T16:07:07.825Z,4.83
2022-11-21T16:12:09.743Z,4.82
2022-11-21T16:17:11.514Z,4.78
2022-11-21T16:22:13.219Z,4.63
2022-11-21T16:27:14.815Z,4.61
2022-11-21T16:32:16.506Z,4.49
2022-11-21T16:37:18.149Z,4.48
2022-11-21T16:42:20.119Z,4.44
2022-11-21T16:47:21.898Z,4.56
2022-11-21T16:52:23.612Z,4.60
2022-11-21T16:57:25.275Z,4.67
2022-11-21T17:02:27.056Z,4.61
2022-11-21T17:07:29.049Z,4.66
2022-11-21T17:12:35.827Z,4.59
2022-11-21T17:17:37.695Z,4.56
2022-11-21T17:22:39.694Z,4.52
2022-11-21T17:27:41.716Z,4.56
2022-11-21T17:32:43.359Z,4.66
2022-11-21T17:37:45.129Z,4.73
2022-11-21T17:42:47.156Z,4.83
2022-11-21T17:47:48.954Z,4.88
2022-11-21T17:52:50.663Z,4.87
2022-11-21T17:57:52.308Z,4.92
2022-11-21T18:02:56.453Z,4.95
2022-11-21T18:07:58.415Z,4.95
2022-11-21T18:13:00.355Z,4.98
2022-11-21T18:18:02.010Z,4.95
2022-11-21T18:23:04.091Z,4.95
2022-11-21T18:28:05.819Z,4.97
2022-11-21T18:33:07.457Z,4.96
2022-11-21T18:38:09.267Z,4.94
2022-11-21T18:43:11.004Z,4.92
2022-11-21T18:48:14.387Z,4.86
2022-11-21T18:53:16.530Z,4.82
2022-11-21T18:58:18.228Z,4.80
2022-11-21T19:03:20.616Z,4.75
2022-11-21T19:08:22.445Z,4.79
2022-11-21T19:13:24.026Z,4.78
2022-11-21T19:18:25.771Z,4.77
2022-11-21T19:23:27.510Z,4.75
2022-11-21T19:28:32.692Z,4.75
2022-11-21T19:33:34.750Z,4.69
2022-11-21T19:38:36.449Z,4.66
2022-11-21T19:43:38.095Z,4.63
2022-11-21T19:48:40.441Z,4.65
2022-11-21T19:53:42.604Z,4.67
2022-11-21T19:58:45.708Z,4.69
2022-11-21T20:03:50.251Z,4.67
2022-11-21T20:08:56.013Z,4.73
2022-11-21T20:13:58.335Z,4.80
2022-11-21T20:19:06.509Z,4.84
2022-11-21T20:24:08.761Z,4.85
2022-11-21T20:29:13.127Z,4.86
2022-11-21T20:34:15.478Z,4.90
2022-11-21T20:39:18.555Z,4.93
2022-11-21T20:49:45.093Z,5.03
2022-11-21T20:54:46.880Z,5.11
2022-11-21T20:59:48.619Z,5.03
2022-11-21T21:04:50.404Z,4.87
2022-11-21T21:09:53.463Z,4.94
2022-11-21T21:14:55.697Z,5.06
2022-11-21T21:19:57.335Z,5.03
2022-11-21T21:24:59.025Z,5.09
2022-11-21T21:30:00.700Z,5.11
2022-11-21T21:35:02.376Z,5.19
2022-11-21T21:40:05.464Z,5.22
2022-11-21T21:45:07.820Z,5.27
2022-11-21T21:50:15.486Z,5.29
2022-11-21T21:55:17.619Z,5.25
2022-11-21T22:00:19.323Z,5.20
2022-11-21T22:05:21.627Z,5.24
2022-11-21T22:10:23.315Z,5.29
2022-11-21T22:15:25.013Z,5.27
2022-11-21T22:20:26.816Z,5.30
2022-11-21T22:25:28.505Z,5.30
2022-11-21T22:30:30.509Z,5.27
2022-11-21T22:35:33.622Z,5.26
2022-11-21T22:40:35.457Z,5.28
2022-11-21T22:45:37.126Z,5.24
2022-11-21T22:50:43.968Z,5.17
2022-11-21T22:55:45.705Z,5.14
2022-11-21T23:00:47.438Z,5.10
2022-11-21T23:05:58.111Z,5.09
2022-11-21T23:11:04.969Z,5.06
2022-11-21T23:16:07.593Z,5.08
2022-11-21T23:21:10.820Z,4.52
2022-11-21T23:26:12.562Z,4.09
2022-11-21T23:31:14.348Z,4.16
2022-11-21T23:36:16.112Z,4.19
2022-11-21T23:41:17.861Z,4.01
2022-11-21T23:46:19.541Z,4.02
2022-11-21T23:51:21.383Z,4.05
2022-11-21T23:56:23.017Z,4.10
